^^
Your Local Weather - Clay, NY Station Historical Data
Daily Summary for January 7, 2018 Units:  English    Metric   Both
« Previous Day
Next Day »
Daily Weekly Monthly Yearly Custom
  High: Low: Average:
Temperature: 24.9 °F -10.0 °F 5.3 °F
Dew Point: 11.0 °F -14.2 °F -2.1 °F
Humidity: 84% 49% 72%
Wind Speed: 6.0mph 0.0mph 1.3mph
Wind Gust: 9.0mph - -
Wind- - SE
Pressure: 30.56 in 30.11 in -
Precipitation: 0.00 in    
Historical Graphs
 
 
Tabular Data for January 7, 2018
Time Temperature Dew Point Pressure Wind Wind Speed Wind Gust Humidity Rainfall Rate (Hourly) solar
00:02 2.0 °F -1.7 °F 30.50 in NW 1.0 mph 1.0 mph 84% 0.00 in 0 W/m2
00:10 1.9 °F -1.8 °F 30.51 in NE 1.0 mph 1.0 mph 84% 0.00 in 0 W/m2
00:16 1.5 °F -2.5 °F 30.51 in NNE 1.0 mph 2.0 mph 83% 0.00 in 0 W/m2
00:22 1.0 °F -3.0 °F 30.51 in NNE 1.0 mph 2.0 mph 83% 0.00 in 0 W/m2
00:28 0.4 °F -3.5 °F 30.51 in NE 1.0 mph 3.0 mph 83% 0.00 in 0 W/m2
00:34 0.1 °F -3.8 °F 30.51 in North 1.0 mph 3.0 mph 83% 0.00 in 0 W/m2
00:40 -0.2 °F -4.1 °F 30.52 in North 2.0 mph 2.0 mph 83% 0.00 in 0 W/m2
00:46 -0.4 °F -4.6 °F 30.52 in North 1.0 mph 2.0 mph 82% 0.00 in 0 W/m2
00:54 -0.5 °F -4.4 °F 30.52 in Calm   1.0 mph 83% 0.00 in 0 W/m2
01:04 -0.7 °F -4.6 °F 30.52 in NNW 1.0 mph 1.0 mph 83% 0.00 in 0 W/m2
01:10 -1.0 °F -5.2 °F 30.52 in NNE 1.0 mph 2.0 mph 82% 0.00 in 0 W/m2
01:16 -1.3 °F -5.5 °F 30.52 in NE 1.0 mph 2.0 mph 82% 0.00 in 0 W/m2
01:28 -1.7 °F -6.1 °F 30.52 in North 2.0 mph 3.0 mph 81% 0.00 in 0 W/m2
01:34 -1.9 °F -6.3 °F 30.52 in NNW 2.0 mph 3.0 mph 81% 0.00 in 0 W/m2
01:50 -2.1 °F -6.2 °F 30.52 in North 1.0 mph 1.0 mph 82% 0.00 in 0 W/m2
01:56 -2.4 °F -6.8 °F 30.52 in NE 1.0 mph 2.0 mph 81% 0.00 in 0 W/m2
02:02 -2.6 °F -7.0 °F 30.53 in Calm   1.0 mph 81% 0.00 in 0 W/m2
02:08 -2.7 °F -7.1 °F 30.54 in Calm   1.0 mph 81% 0.00 in 0 W/m2
02:14 -3.0 °F -7.4 °F 30.54 in Calm     81% 0.00 in 0 W/m2
02:20 -3.2 °F -7.6 °F 30.54 in Calm     81% 0.00 in 0 W/m2
02:26 -3.5 °F -7.9 °F 30.54 in Calm     81% 0.00 in 0 W/m2
02:34 -3.6 °F -7.7 °F 30.54 in Calm     82% 0.00 in 0 W/m2
02:40 -3.8 °F -8.2 °F 30.54 in Calm     81% 0.00 in 0 W/m2
02:46 -3.9 °F -8.3 °F 30.54 in Calm     81% 0.00 in 0 W/m2
02:52 -4.2 °F -8.6 °F 30.55 in Calm     81% 0.00 in 0 W/m2
03:02 -4.6 °F -8.9 °F 30.54 in Calm     81% 0.00 in 0 W/m2
03:10 -5.0 °F -9.3 °F 30.54 in Calm     81% 0.00 in 0 W/m2
03:16 -5.3 °F -9.6 °F 30.54 in Calm     81% 0.00 in 0 W/m2
03:26 -5.9 °F -10.2 °F 30.54 in Calm     81% 0.00 in 0 W/m2
03:32 -6.4 °F -10.7 °F 30.54 in Calm     81% 0.00 in 0 W/m2
03:38 -7.1 °F -11.4 °F 30.54 in Calm     81% 0.00 in 0 W/m2
03:44 -7.8 °F -12.1 °F 30.54 in Calm     81% 0.00 in 0 W/m2
03:50 -8.3 °F -12.6 °F 30.55 in Calm     81% 0.00 in 0 W/m2
04:04 -8.8 °F -13.1 °F 30.56 in Calm     81% 0.00 in 0 W/m2
04:10 -8.4 °F -12.7 °F 30.56 in Calm     81% 0.00 in 0 W/m2
04:24 -8.9 °F -13.2 °F 30.54 in Calm     81% 0.00 in 0 W/m2
04:30 -9.2 °F -13.4 °F 30.55 in Calm     81% 0.00 in 0 W/m2
04:38 -9.8 °F -14.0 °F 30.54 in Calm   1.0 mph 81% 0.00 in 0 W/m2
04:46 -10.0 °F -14.2 °F 30.54 in Calm     81% 0.00 in 0 W/m2
04:52 -9.9 °F -14.1 °F 30.54 in Calm     81% 0.00 in 0 W/m2
04:58 -9.7 °F -13.9 °F 30.54 in Calm     81% 0.00 in 0 W/m2
05:06 -9.5 °F -13.7 °F 30.54 in Calm   1.0 mph 81% 0.00 in 0 W/m2
05:12 -8.9 °F -13.2 °F 30.54 in Calm     81% 0.00 in 0 W/m2
05:18 -8.6 °F -12.6 °F 30.54 in Calm     82% 0.00 in 0 W/m2
05:24 -8.3 °F -12.3 °F 30.54 in Calm     82% 0.00 in 0 W/m2
05:32 -8.0 °F -12.0 °F 30.54 in Calm     82% 0.00 in 0 W/m2
05:38 -7.9 °F -12.2 °F 30.54 in Calm   1.0 mph 81% 0.00 in 0 W/m2
05:44 -7.6 °F -11.6 °F 30.54 in Calm     82% 0.00 in 0 W/m2
05:50 -7.5 °F -11.5 °F 30.54 in Calm     82% 0.00 in 0 W/m2
05:56 -7.2 °F -11.5 °F 30.54 in Calm     81% 0.00 in 0 W/m2
06:10 -6.5 °F -10.8 °F 30.54 in Calm     81% 0.00 in 0 W/m2
06:16 -6.5 °F -10.8 °F 30.55 in Calm     81% 0.00 in 0 W/m2
06:22 -6.6 °F -10.9 °F 30.55 in Calm     81% 0.00 in 0 W/m2
06:30 -6.6 °F -10.9 °F 30.56 in Calm     81% 0.00 in 0 W/m2
06:36 -6.6 °F -10.9 °F 30.56 in Calm     81% 0.00 in 0 W/m2
06:48 -6.6 °F -10.9 °F 30.56 in Calm     81% 0.00 in 0 W/m2
06:54 -6.6 °F -10.9 °F 30.56 in Calm     81% 0.00 in 0 W/m2
07:00 -6.6 °F -10.9 °F 30.56 in Calm     81% 0.00 in 0 W/m2
07:08 -6.6 °F -10.9 °F 30.56 in Calm     81% 0.00 in 0 W/m2
07:14 -6.6 °F -10.9 °F 30.56 in Calm     81% 0.00 in 0 W/m2
07:20 -6.8 °F -11.1 °F 30.56 in Calm     81% 0.00 in 0 W/m2
07:36 -7.2 °F -11.7 °F 30.55 in Calm     80% 0.00 in 0 W/m2
07:42 -7.3 °F -11.8 °F 30.54 in Calm     80% 0.00 in 0 W/m2
07:54 -7.2 °F -11.7 °F 30.55 in Calm     80% 0.00 in 0 W/m2
08:04 -6.9 °F -11.4 °F 30.54 in Calm   1.0 mph 80% 0.00 in 0 W/m2
08:10 -6.8 °F -11.4 °F 30.54 in Calm   2.0 mph 80% 0.00 in 0 W/m2
08:16 -6.6 °F -11.2 °F 30.54 in Calm   2.0 mph 80% 0.00 in 0 W/m2
08:22 -6.5 °F -11.1 °F 30.54 in Calm   1.0 mph 80% 0.00 in 0 W/m2
08:28 -6.4 °F -11.2 °F 30.54 in Calm   1.0 mph 79% 0.00 in 0 W/m2
08:44 -6.5 °F -11.3 °F 30.54 in Calm   1.0 mph 79% 0.00 in 14 W/m2
08:50 -5.7 °F -10.5 °F 30.54 in ESE 1.0 mph 1.0 mph 79% 0.00 in 7 W/m2
08:56 -5.7 °F -10.8 °F 30.54 in East 1.0 mph 2.0 mph 78% 0.00 in 7 W/m2
09:04 -5.8 °F -10.9 °F 30.54 in ENE 1.0 mph 1.0 mph 78% 0.00 in 11 W/m2
09:14 -4.3 °F -9.4 °F 30.55 in ENE 1.0 mph 1.0 mph 78% 0.00 in 12 W/m2
09:22 -3.5 °F -8.9 °F 30.54 in ESE 1.0 mph 1.0 mph 77% 0.00 in 18 W/m2
09:30 -3.9 °F -9.6 °F 30.54 in East 1.0 mph 1.0 mph 76% 0.00 in 12 W/m2
09:36 -4.1 °F -9.5 °F 30.54 in East 1.0 mph 1.0 mph 77% 0.00 in 12 W/m2
09:42 -4.0 °F -9.4 °F 30.54 in ENE 1.0 mph 1.0 mph 77% 0.00 in 18 W/m2
09:48 -2.8 °F -8.2 °F 30.54 in ENE 1.0 mph 1.0 mph 77% 0.00 in 23 W/m2
09:56 -1.9 °F -7.6 °F 30.54 in ESE 1.0 mph 2.0 mph 76% 0.00 in 25 W/m2
10:02 -1.6 °F -7.3 °F 30.53 in ENE 1.0 mph 3.0 mph 76% 0.00 in 28 W/m2
10:08 -1.6 °F -7.6 °F 30.54 in ENE 1.0 mph 3.0 mph 75% 0.00 in 28 W/m2
10:14 -0.4 °F -5.9 °F 30.53 in ESE 1.0 mph 1.0 mph 77% 0.00 in 33 W/m2
10:24 0.4 °F -5.4 °F 30.53 in SE 1.0 mph 1.0 mph 76% 0.00 in 19 W/m2
10:30 0.8 °F -5.0 °F 30.53 in East 1.0 mph 2.0 mph 76% 0.00 in 25 W/m2
10:36 1.3 °F -4.5 °F 30.52 in East 1.0 mph 2.0 mph 76% 0.00 in 30 W/m2
10:44 2.5 °F -3.6 °F 30.51 in ESE 1.0 mph 2.0 mph 75% 0.00 in 35 W/m2
10:54 2.7 °F -3.4 °F 30.50 in East 1.0 mph 2.0 mph 75% 0.00 in 14 W/m2
11:00 3.1 °F -2.8 °F 30.50 in SE 1.0 mph 1.0 mph 76% 0.00 in 26 W/m2
11:04 3.5 °F -2.7 °F 30.49 in East 1.0 mph 1.0 mph 75% 0.00 in 28 W/m2
11:10 4.4 °F -1.8 °F 30.48 in ESE 1.0 mph 1.0 mph 75% 0.00 in 28 W/m2
11:16 4.7 °F -1.5 °F 30.48 in ENE 1.0 mph 2.0 mph 75% 0.00 in 33 W/m2
11:24 5.0 °F -1.5 °F 30.47 in ENE 1.0 mph 3.0 mph 74% 0.00 in 25 W/m2
11:30 5.5 °F -1.0 °F 30.47 in ENE 1.0 mph 1.0 mph 74% 0.00 in 25 W/m2
11:36 5.9 °F -0.6 °F 30.46 in ENE 1.0 mph 2.0 mph 74% 0.00 in 21 W/m2
11:42 5.8 °F -1.3 °F 30.46 in ENE 1.0 mph 1.0 mph 72% 0.00 in 25 W/m2
11:48 5.8 °F -1.0 °F 30.46 in NE 1.0 mph 2.0 mph 73% 0.00 in 28 W/m2
11:54 6.1 °F -0.7 °F 30.45 in East 1.0 mph 3.0 mph 73% 0.00 in 23 W/m2
12:04 6.2 °F -0.9 °F 30.45 in East 1.0 mph 3.0 mph 72% 0.00 in 25 W/m2
12:10 6.2 °F -1.2 °F 30.45 in East 2.0 mph 2.0 mph 71% 0.00 in 25 W/m2
12:16 6.7 °F -0.4 °F 30.44 in ENE 2.0 mph 3.0 mph 72% 0.00 in 28 W/m2
12:22 7.4 °F 0.6 °F 30.43 in ENE 2.0 mph 2.0 mph 73% 0.00 in 25 W/m2
12:28 8.1 °F 1.2 °F 30.43 in SE 1.0 mph 2.0 mph 73% 0.00 in 32 W/m2
12:38 11.0 °F 4.0 °F 30.42 in South 1.0 mph 3.0 mph 73% 0.00 in 39 W/m2
12:44 11.8 °F 4.2 °F 30.41 in South 2.0 mph 5.0 mph 71% 0.00 in 40 W/m2
12:50 11.9 °F 3.7 °F 30.40 in SW 3.0 mph 3.0 mph 69% 0.00 in 39 W/m2
12:56 12.4 °F 4.5 °F 30.40 in SSE 3.0 mph 5.0 mph 70% 0.00 in 40 W/m2
13:03 12.1 °F 3.9 °F 30.39 in SW 3.0 mph 3.0 mph 69% 0.00 in 44 W/m2
13:08 12.9 °F 4.6 °F 30.39 in SSW 2.0 mph 4.0 mph 69% 0.00 in 44 W/m2
13:14 13.1 °F 4.2 °F 30.38 in SSE 2.0 mph 6.0 mph 67% 0.00 in 35 W/m2
13:20 12.3 °F 3.1 °F 30.37 in SSE 4.0 mph 6.0 mph 66% 0.00 in 32 W/m2
13:30 13.0 °F 4.1 °F 30.36 in SE 3.0 mph 3.0 mph 67% 0.00 in 35 W/m2
13:38 12.9 °F 3.7 °F 30.36 in SSE 3.0 mph 3.0 mph 66% 0.00 in 35 W/m2
13:44 13.3 °F 3.4 °F 30.35 in SE 3.0 mph 5.0 mph 64% 0.00 in 33 W/m2
13:50 13.3 °F 3.7 °F 30.35 in SSE 3.0 mph 3.0 mph 65% 0.00 in 32 W/m2
13:58 13.7 °F 3.8 °F 30.35 in SSE 3.0 mph 4.0 mph 64% 0.00 in 28 W/m2
14:06 13.8 °F 3.5 °F 30.35 in ESE 3.0 mph 4.0 mph 63% 0.00 in 32 W/m2
14:12 14.0 °F 3.4 °F 30.34 in SE 3.0 mph 4.0 mph 62% 0.00 in 35 W/m2
14:18 14.4 °F 3.4 °F 30.34 in SE 3.0 mph 4.0 mph 61% 0.00 in 35 W/m2
14:24 14.7 °F 3.7 °F 30.34 in South 3.0 mph 4.0 mph 61% 0.00 in 30 W/m2
14:30 14.5 °F 2.4 °F 30.34 in SE 3.0 mph 3.0 mph 58% 0.00 in 30 W/m2
14:36 14.9 °F 2.8 °F 30.33 in South 3.0 mph 4.0 mph 58% 0.00 in 32 W/m2
14:46 14.9 °F 2.0 °F 30.32 in SE 4.0 mph 5.0 mph 56% 0.00 in 30 W/m2
14:52 15.0 °F 1.7 °F 30.32 in South 3.0 mph 6.0 mph 55% 0.00 in 33 W/m2
14:58 15.0 °F 1.7 °F 30.31 in SSE 4.0 mph 7.0 mph 55% 0.00 in 21 W/m2
15:04 14.9 °F 1.2 °F 30.30 in SSE 4.0 mph 7.0 mph 54% 0.00 in 21 W/m2
15:10 15.0 °F 2.1 °F 30.30 in SE 3.0 mph 3.0 mph 56% 0.00 in 32 W/m2
15:22 15.2 °F 2.3 °F 30.29 in SSE 2.0 mph 3.0 mph 56% 0.00 in 9 W/m2
15:30 15.4 °F 2.9 °F 30.29 in SSE 1.0 mph 1.0 mph 57% 0.00 in 11 W/m2
15:36 15.7 °F 3.5 °F 30.29 in SSE 1.0 mph 1.0 mph 58% 0.00 in 9 W/m2
15:42 14.8 °F 3.8 °F 30.29 in ENE 1.0 mph 1.0 mph 61% 0.00 in 7 W/m2
16:04 13.6 °F 4.7 °F 30.27 in East 1.0 mph 2.0 mph 67% 0.00 in 5 W/m2
16:10 13.7 °F 4.8 °F 30.27 in East 1.0 mph 1.0 mph 67% 0.00 in 0 W/m2
16:18 13.6 °F 5.6 °F 30.26 in East 1.0 mph 2.0 mph 70% 0.00 in 0 W/m2
16:20 13.6 °F 5.3 °F 30.26 in East 1.0 mph 1.0 mph 69% 0.00 in 0 W/m2
16:26 13.6 °F 5.9 °F 30.26 in ESE 1.0 mph 3.0 mph 71% 0.00 in 0 W/m2
16:34 15.2 °F 5.2 °F 30.25 in SE 2.0 mph 5.0 mph 64% 0.00 in 0 W/m2
16:42 16.1 °F 4.6 °F 30.24 in SE 2.0 mph 4.0 mph 60% 0.00 in 0 W/m2
16:48 16.5 °F 4.7 °F 30.24 in SSE 3.0 mph 4.0 mph 59% 0.00 in 0 W/m2
17:04 16.6 °F 4.7 °F 30.23 in South 2.0 mph 2.0 mph 59% 0.00 in 0 W/m2
17:12 16.8 °F 4.2 °F 30.23 in SE 2.0 mph 3.0 mph 57% 0.00 in 0 W/m2
17:18 17.0 °F 4.7 °F 30.22 in SE 2.0 mph 5.0 mph 58% 0.00 in 0 W/m2
17:26 17.3 °F 4.7 °F 30.22 in SSE 2.0 mph 3.0 mph 57% 0.00 in 0 W/m2
17:38 17.3 °F 6.1 °F 30.22 in ESE 1.0 mph 2.0 mph 61% 0.00 in 0 W/m2
17:46 16.8 °F 7.1 °F 30.21 in Calm   1.0 mph 65% 0.00 in 0 W/m2
17:58 16.6 °F 7.9 °F 30.21 in Calm     68% 0.00 in 0 W/m2
18:04 16.7 °F 8.0 °F 30.21 in Calm     68% 0.00 in 0 W/m2
18:10 16.8 °F 8.4 °F 30.20 in Calm     69% 0.00 in 0 W/m2
18:16 16.7 °F 8.3 °F 30.20 in Calm     69% 0.00 in 0 W/m2
18:22 16.6 °F 8.8 °F 30.19 in Calm   2.0 mph 71% 0.00 in 0 W/m2
18:28 16.5 °F 9.4 °F 30.19 in Calm   2.0 mph 73% 0.00 in 0 W/m2
18:34 16.7 °F 9.5 °F 30.19 in Calm     73% 0.00 in 0 W/m2
18:40 17.0 °F 9.5 °F 30.19 in Calm     72% 0.00 in 0 W/m2
18:46 17.3 °F 9.2 °F 30.19 in Calm     70% 0.00 in 0 W/m2
18:52 17.1 °F 9.6 °F 30.19 in Calm     72% 0.00 in 0 W/m2
18:58 17.0 °F 9.8 °F 30.18 in Calm     73% 0.00 in 0 W/m2
19:08 16.8 °F 9.9 °F 30.18 in Calm     74% 0.00 in 0 W/m2
19:18 16.9 °F 10.3 °F 30.18 in Calm     75% 0.00 in 0 W/m2
19:26 16.9 °F 10.6 °F 30.18 in Calm     76% 0.00 in 0 W/m2
19:40 18.7 °F 9.6 °F 30.17 in ESE 1.0 mph 1.0 mph 67% 0.00 in 0 W/m2
19:46 19.4 °F 9.2 °F 30.18 in SE 1.0 mph 3.0 mph 64% 0.00 in 0 W/m2
19:52 20.1 °F 7.7 °F 30.16 in SSW 2.0 mph 2.0 mph 58% 0.00 in 0 W/m2
20:02 21.3 °F 6.4 °F 30.16 in South 4.0 mph 6.0 mph 52% 0.00 in 0 W/m2
20:10 21.7 °F 6.3 °F 30.15 in South 5.0 mph 5.0 mph 51% 0.00 in 0 W/m2
20:16 21.8 °F 6.0 °F 30.15 in SW 5.0 mph 5.0 mph 50% 0.00 in 0 W/m2
20:22 22.0 °F 6.2 °F 30.14 in South 5.0 mph 7.0 mph 50% 0.00 in 0 W/m2
20:28 22.2 °F 5.9 °F 30.14 in South 6.0 mph 9.0 mph 49% 0.00 in 0 W/m2
20:34 22.3 °F 6.0 °F 30.14 in SSW 6.0 mph 7.0 mph 49% 0.00 in 0 W/m2
20:40 22.3 °F 6.4 °F 30.14 in SW 5.0 mph 6.0 mph 50% 0.00 in 0 W/m2
20:46 22.5 °F 6.2 °F 30.13 in South 5.0 mph 9.0 mph 49% 0.00 in 0 W/m2
21:02 22.8 °F 6.9 °F 30.13 in South 4.0 mph 8.0 mph 50% 0.00 in 0 W/m2
21:12 23.1 °F 7.2 °F 30.13 in South 3.0 mph 6.0 mph 50% 0.00 in 0 W/m2
21:18 23.3 °F 7.8 °F 30.13 in SSE 4.0 mph 6.0 mph 51% 0.00 in 0 W/m2
21:28 23.4 °F 8.3 °F 30.13 in South 3.0 mph 5.0 mph 52% 0.00 in 0 W/m2
21:36 23.7 °F 8.6 °F 30.13 in SSW 4.0 mph 5.0 mph 52% 0.00 in 0 W/m2
21:42 24.0 °F 8.9 °F 30.13 in SW 4.0 mph 5.0 mph 52% 0.00 in 0 W/m2
22:04 24.3 °F 10.0 °F 30.12 in South 3.0 mph 4.0 mph 54% 0.00 in 0 W/m2
22:28 24.9 °F 11.0 °F 30.11 in SSW 4.0 mph 6.0 mph 55% 0.00 in 0 W/m2
Country Meadow, Clay, NY, USA
Compliments of Weather Underground - 2 mb